Terminal Aerodrome Forecast
Issued by NWS Glasgow, MT

Home | Current Version | Previous Version | Text Only | Print | Product List | Glossary On
Versions: 1 2 3 4 5 6 7 8 9 10 11 12 13
166
FTUS45 KGGW 021127
TAFGGW
TAF
KGGW 021127Z 0212/0312 30007KT P6SM SCT200
     FM021700 31011KT P6SM SCT250
     FM030300 01007KT P6SM FEW250=

USA.gov is the U.S. government's official web portal to all federal, state and local government web resources and services.